Time;durP1;ratioP1;P1;durP2;ratioP2;P2;SDS_P1;SDS_P2;PMS_P1;PMS_P2;Temp;Humidity;BMP_temperature;BMP_pressure;BME280_temperature;BME280_humidity;BME280_pressure;Samples;Min_cycle;Max_cycle;Signal;HPM_P1;HPM_P2
2022/03/09 00:03:12;;;;;;;18.67;9.10;;;;;-2.40;96857.00;;;;8316074;28;20668;-73
2022/03/09 00:07:16;;;;;;;19.33;8.53;;;;;-2.40;96865.00;;;;8317698;28;20970;-74
2022/03/09 00:11:20;;;;;;;21.77;8.20;;;;;-2.40;96858.00;;;;8313956;28;20841;-74
2022/03/09 00:15:23;;;;;;;23.37;9.67;;;;;-2.40;96865.00;;;;8319040;28;20629;-75
2022/03/09 00:19:26;;;;;;;25.70;10.93;;;;;-2.40;96858.00;;;;8317435;28;20230;-75
2022/03/09 00:23:29;;;;;;;20.00;8.97;;;;;-2.40;96867.00;;;;8316551;28;20224;-73
2022/03/09 00:27:34;;;;;;;21.07;8.43;;;;;-2.60;96861.00;;;;8315787;28;20219;-74
2022/03/09 00:31:37;;;;;;;22.23;9.63;;;;;-2.70;96863.00;;;;8316526;28;20263;-75
2022/03/09 00:35:42;;;;;;;20.10;9.37;;;;;-2.70;96871.00;;;;8323696;28;20228;-74
2022/03/09 00:39:45;;;;;;;17.70;8.37;;;;;-2.60;96870.00;;;;8319991;28;20278;-75
2022/03/09 00:43:49;;;;;;;23.20;10.10;;;;;-2.60;96873.00;;;;8314407;28;20227;-75
2022/03/09 00:47:52;;;;;;;18.97;8.97;;;;;-2.70;96874.00;;;;8331896;28;20223;-75
2022/03/09 00:51:55;;;;;;;22.07;10.17;;;;;-2.80;96875.00;;;;8327173;28;20238;-75
2022/03/09 00:55:58;;;;;;;25.17;10.03;;;;;-2.90;96869.00;;;;8321581;28;20224;-76
2022/03/09 01:00:04;;;;;;;23.40;9.27;;;;;-2.90;96857.00;;;;8325754;28;20276;-76
2022/03/09 01:04:07;;;;;;;23.47;9.60;;;;;-2.90;96859.00;;;;8325854;28;20230;-76
2022/03/09 01:08:10;;;;;;;18.97;8.87;;;;;-2.90;96857.00;;;;8334902;28;20687;-75
2022/03/09 01:12:13;;;;;;;22.90;9.73;;;;;-3.00;96858.00;;;;8322012;28;20278;-77
2022/03/09 01:16:19;;;;;;;19.83;9.17;;;;;-3.10;96857.00;;;;8324391;28;20242;-76
2022/03/09 01:20:22;;;;;;;22.07;9.90;;;;;-3.10;96851.00;;;;8324408;28;21262;-76
2022/03/09 01:24:25;;;;;;;23.50;9.50;;;;;-3.10;96848.00;;;;8320941;28;20713;-77
2022/03/09 01:28:28;;;;;;;21.10;8.87;;;;;-3.20;96842.00;;;;8314304;28;20242;-77
2022/03/09 01:32:33;;;;;;;18.83;9.30;;;;;-3.30;96840.00;;;;8320673;28;20240;-76
2022/03/09 01:36:37;;;;;;;24.67;10.00;;;;;-3.30;96840.00;;;;8320693;28;20221;-76
2022/03/09 01:40:40;;;;;;;23.50;9.20;;;;;-3.40;96840.00;;;;8321520;28;20235;-77
2022/03/09 01:44:43;;;;;;;21.57;9.00;;;;;-3.40;96852.00;;;;8324144;28;20827;-76
2022/03/09 01:48:47;;;;;;;20.50;8.87;;;;;-3.30;96855.00;;;;8327395;28;20232;-75
2022/03/09 01:52:50;;;;;;;19.70;8.93;;;;;-3.30;96843.00;;;;8324042;28;20227;-74
2022/03/09 01:56:54;;;;;;;22.87;9.70;;;;;-3.30;96835.00;;;;8322695;28;20238;-73
2022/03/09 02:00:57;;;;;;;18.63;8.67;;;;;-3.30;96837.00;;;;8321508;28;20282;-76
2022/03/09 02:05:01;;;;;;;19.80;8.93;;;;;-3.50;96836.00;;;;8325764;28;20248;-74
2022/03/09 02:13:26;;;;;;;21.73;9.63;;;;;-3.60;96843.00;;;;8322307;28;20238;-75
2022/03/09 02:17:29;;;;;;;22.57;9.50;;;;;-3.60;96829.00;;;;8319727;28;20224;-74
2022/03/09 02:21:34;;;;;;;21.27;9.03;;;;;-3.60;96839.00;;;;8322322;28;20227;-74
2022/03/09 02:25:39;;;;;;;23.63;9.50;;;;;-3.70;96845.00;;;;8329988;28;20242;-72
2022/03/09 02:29:42;;;;;;;21.63;8.47;;;;;-3.70;96836.00;;;;8319083;28;20237;-74
2022/03/09 02:33:46;;;;;;;22.40;9.27;;;;;-3.70;96855.00;;;;8328426;28;20286;-75
2022/03/09 02:37:49;;;;;;;22.00;8.60;;;;;-3.60;96853.00;;;;8327923;28;20227;-75
2022/03/09 02:41:54;;;;;;;22.80;9.47;;;;;-3.60;96866.00;;;;8318240;28;20246;-75
2022/03/09 02:45:56;;;;;;;19.93;8.93;;;;;-3.60;96854.00;;;;8318104;28;20781;-76
2022/03/09 02:50:00;;;;;;;19.63;8.77;;;;;-3.60;96840.00;;;;8318290;28;20569;-75
2022/03/09 02:54:03;;;;;;;21.77;9.03;;;;;-3.50;96832.00;;;;8321597;28;20265;-76
2022/03/09 02:58:08;;;;;;;22.90;8.83;;;;;-3.50;96843.00;;;;8319924;28;20233;-74
2022/03/09 03:02:11;;;;;;;21.53;9.23;;;;;-3.50;96849.00;;;;8356203;23;21634;-75
2022/03/09 03:06:14;;;;;;;23.83;9.33;;;;;-3.50;96864.00;;;;8307194;28;20363;-75
2022/03/09 03:10:19;;;;;;;20.67;8.57;;;;;-3.60;96858.00;;;;8310313;28;20225;-76
2022/03/09 03:14:23;;;;;;;20.63;9.20;;;;;-3.60;96850.00;;;;8309039;28;20311;-76
2022/03/09 03:18:26;;;;;;;19.43;8.03;;;;;-3.70;96852.00;;;;8313253;28;20281;-73
2022/03/09 03:22:29;;;;;;;18.33;8.03;;;;;-3.70;96844.00;;;;8314892;28;20235;-75
2022/03/09 03:26:32;;;;;;;22.47;8.73;;;;;-3.80;96842.00;;;;8315814;28;20225;-76
2022/03/09 03:30:36;;;;;;;22.43;8.60;;;;;-3.90;96845.00;;;;8314678;28;20681;-75
2022/03/09 03:34:39;;;;;;;16.47;8.77;;;;;-4.00;96844.00;;;;8314726;28;20756;-76
2022/03/09 03:38:42;;;;;;;17.13;8.23;;;;;-4.20;96849.00;;;;8314347;28;20639;-75
2022/03/09 03:42:45;;;;;;;17.43;8.53;;;;;-4.20;96858.00;;;;8313502;28;20230;-75
2022/03/09 03:46:50;;;;;;;16.97;7.90;;;;;-4.20;96847.00;;;;8313851;28;20272;-74
2022/03/09 03:50:53;;;;;;;18.47;8.30;;;;;-4.30;96850.00;;;;8310260;28;20584;-73
2022/03/09 03:54:56;;;;;;;16.70;7.70;;;;;-4.30;96854.00;;;;8314436;28;20314;-75
2022/03/09 03:58:59;;;;;;;17.90;8.23;;;;;-4.40;96870.00;;;;8314526;28;20234;-74
2022/03/09 04:03:03;;;;;;;19.37;8.53;;;;;-4.40;96861.00;;;;8327976;28;20721;-74
2022/03/09 04:07:06;;;;;;;19.37;9.13;;;;;-4.40;96871.00;;;;8339861;28;20830;-75
2022/03/09 04:11:09;;;;;;;21.83;8.77;;;;;-4.40;96871.00;;;;8339670;28;20221;-74
2022/03/09 04:15:12;;;;;;;17.67;7.90;;;;;-4.30;96877.00;;;;8337896;28;20241;-74
2022/03/09 04:19:17;;;;;;;18.27;8.00;;;;;-4.40;96882.00;;;;8339815;28;20669;-75
2022/03/09 04:23:20;;;;;;;20.23;8.53;;;;;-4.40;96888.00;;;;8344707;28;20235;-75
2022/03/09 04:27:22;;;;;;;18.50;8.70;;;;;-4.40;96887.00;;;;8330754;28;21022;-76
2022/03/09 04:31:25;;;;;;;22.17;8.93;;;;;-4.50;96896.00;;;;8331899;28;20705;-76
2022/03/09 04:35:30;;;;;;;16.27;7.73;;;;;-4.50;96892.00;;;;8340035;28;20286;-77
2022/03/09 04:39:33;;;;;;;20.37;8.37;;;;;-4.60;96889.00;;;;8337238;28;20231;-76
2022/03/09 04:43:38;;;;;;;18.87;7.80;;;;;-4.60;96895.00;;;;8340648;28;20271;-77
2022/03/09 04:47:41;;;;;;;19.10;8.13;;;;;-4.60;96896.00;;;;8341134;28;20235;-76
2022/03/09 04:51:45;;;;;;;16.97;7.80;;;;;-4.60;96893.00;;;;8340848;28;20230;-75
2022/03/09 04:55:48;;;;;;;16.93;7.07;;;;;-4.70;96898.00;;;;8338935;28;20227;-76
2022/03/09 04:59:51;;;;;;;13.27;7.27;;;;;-4.80;96894.00;;;;8343146;28;20226;-78
2022/03/09 05:03:54;;;;;;;16.80;7.83;;;;;-4.80;96884.00;;;;8335642;28;20687;-81
2022/03/09 05:07:59;;;;;;;21.13;7.37;;;;;-4.90;96891.00;;;;8334391;28;20598;-84
2022/03/09 05:12:02;;;;;;;19.73;7.87;;;;;-4.90;96884.00;;;;8344909;28;20231;-77
2022/03/09 05:16:06;;;;;;;21.47;7.90;;;;;-5.00;96880.00;;;;8344111;28;20234;-81
2022/03/09 05:20:12;;;;;;;23.50;8.17;;;;;-5.00;96893.00;;;;8335286;28;20258;-78
2022/03/09 05:24:17;;;;;;;18.20;8.20;;;;;-5.10;96899.00;;;;8342759;28;20254;-77
2022/03/09 05:28:20;;;;;;;21.83;8.30;;;;;-5.10;96901.00;;;;8343016;28;20238;-77
2022/03/09 05:32:23;;;;;;;15.93;8.30;;;;;-5.00;96908.00;;;;8338647;28;20285;-76
2022/03/09 05:36:27;;;;;;;26.50;9.90;;;;;-5.10;96898.00;;;;8338736;28;20232;-76
2022/03/09 05:40:31;;;;;;;27.03;8.73;;;;;-5.00;96896.00;;;;8345554;28;20273;-78
2022/03/09 05:44:36;;;;;;;20.97;8.57;;;;;-5.00;96893.00;;;;8342275;28;20230;-78
2022/03/09 05:48:39;;;;;;;21.63;9.43;;;;;-4.90;96895.00;;;;8341638;28;20231;-77
2022/03/09 05:52:42;;;;;;;24.83;9.63;;;;;-4.90;96901.00;;;;8347089;28;20231;-74
2022/03/09 05:56:47;;;;;;;18.67;8.23;;;;;-4.80;96899.00;;;;8349912;28;20234;-74
2022/03/09 06:00:50;;;;;;;19.40;8.93;;;;;-4.80;96909.00;;;;8338373;28;20976;-80
2022/03/09 06:04:53;;;;;;;21.77;9.83;;;;;-4.80;96910.00;;;;8334690;28;20296;-76
2022/03/09 06:08:56;;;;;;;21.73;9.87;;;;;-4.70;96925.00;;;;8342417;28;20283;-78
2022/03/09 06:13:00;;;;;;;21.47;10.50;;;;;-4.70;96927.00;;;;8344551;28;20695;-76
2022/03/09 06:17:04;;;;;;;26.90;9.90;;;;;-4.50;96920.00;;;;8331185;28;20807;-74
2022/03/09 06:21:07;;;;;;;25.77;9.57;;;;;-4.40;96932.00;;;;8338546;28;20238;-77
2022/03/09 06:25:11;;;;;;;23.93;9.80;;;;;-4.30;96933.00;;;;8336373;28;20235;-77
2022/03/09 06:29:16;;;;;;;27.83;10.23;;;;;-4.10;96942.00;;;;8323716;28;20243;-77
2022/03/09 06:33:37;;;;;;;20.83;9.90;;;;;-3.90;96950.00;;;;8305221;28;20245;-74
2022/03/09 06:37:40;;;;;;;22.43;9.60;;;;;-3.70;96962.00;;;;8336126;28;20276;-76
2022/03/09 06:41:44;;;;;;;24.47;9.73;;;;;-3.60;96971.00;;;;8331318;28;20244;-76
2022/03/09 06:45:49;;;;;;;24.20;9.47;;;;;-3.40;96963.00;;;;8335016;28;20325;-75
2022/03/09 06:49:52;;;;;;;20.73;10.60;;;;;-3.30;96978.00;;;;8330931;28;20246;-74
2022/03/09 06:53:55;;;;;;;20.23;9.23;;;;;-3.00;96978.00;;;;8336530;28;20282;-75
2022/03/09 06:57:58;;;;;;;23.50;9.00;;;;;-2.90;96973.00;;;;8334025;28;20234;-75
2022/03/09 07:02:03;;;;;;;25.73;10.73;;;;;-2.70;96975.00;;;;8335842;28;20229;-77
2022/03/09 07:06:07;;;;;;;20.10;10.00;;;;;-2.50;96982.00;;;;8335956;28;20905;-78
2022/03/09 07:10:13;;;;;;;15.60;8.83;;;;;-2.30;96993.00;;;;8336694;28;20241;-76
2022/03/09 07:14:17;;;;;;;24.50;11.57;;;;;-2.10;96984.00;;;;8334628;28;20793;-78
2022/03/09 07:18:21;;;;;;;23.70;10.23;;;;;-1.90;96987.00;;;;8337978;28;20284;-78
2022/03/09 07:22:24;;;;;;;23.60;10.77;;;;;-1.60;96982.00;;;;8339683;28;20792;-78
2022/03/09 07:26:30;;;;;;;22.23;11.53;;;;;-1.40;96985.00;;;;8338570;28;20938;-82
2022/03/09 07:30:33;;;;;;;25.07;12.73;;;;;-1.10;96996.00;;;;8338774;28;20319;-81
2022/03/09 07:34:37;;;;;;;32.03;16.07;;;;;-0.80;96992.00;;;;8335931;28;20223;-79
2022/03/09 07:38:40;;;;;;;28.87;14.13;;;;;-0.60;96989.00;;;;8334832;28;20307;-78
2022/03/09 07:43:03;;;;;;;20.90;9.73;;;;;-0.20;96980.00;;;;8331533;28;20298;-78
2022/03/09 07:47:07;;;;;;;17.13;9.63;;;;;0.00;96998.00;;;;8328936;28;20273;-79
2022/03/09 07:51:11;;;;;;;19.97;10.27;;;;;0.30;97001.00;;;;8337779;28;20225;-81
2022/03/09 07:55:15;;;;;;;22.23;10.73;;;;;0.50;96999.00;;;;8335223;28;20672;-82
2022/03/09 07:59:18;;;;;;;31.83;11.47;;;;;0.80;96993.00;;;;8334474;28;20229;-78
2022/03/09 08:03:21;;;;;;;22.77;9.67;;;;;1.00;97006.00;;;;8334424;28;20242;-79
2022/03/09 08:07:36;;;;;;;35.23;11.53;;;;;1.30;97011.00;;;;8337523;28;20237;-79
2022/03/09 08:11:39;;;;;;;22.57;10.33;;;;;1.60;97015.00;;;;8336616;28;20277;-81
2022/03/09 08:15:43;;;;;;;25.73;10.07;;;;;1.90;97012.00;;;;8341268;28;20890;-81
2022/03/09 08:19:47;;;;;;;28.47;10.20;;;;;2.30;97013.00;;;;8341480;28;20224;-78
2022/03/09 08:23:51;;;;;;;25.13;9.63;;;;;2.60;97020.00;;;;8324549;28;20292;-79
2022/03/09 08:27:54;;;;;;;18.77;8.10;;;;;2.90;97008.00;;;;8332309;28;20232;-81
2022/03/09 08:31:58;;;;;;;15.30;7.97;;;;;3.30;97019.00;;;;8340600;28;20274;-79
2022/03/09 08:36:01;;;;;;;13.43;6.83;;;;;3.60;97023.00;;;;8323221;28;20223;-81
2022/03/09 08:40:07;;;;;;;13.90;7.20;;;;;4.00;97028.00;;;;8334494;28;20222;-77
2022/03/09 08:44:10;;;;;;;15.60;7.17;;;;;4.30;97022.00;;;;8338482;28;20278;-78
2022/03/09 08:48:13;;;;;;;17.40;6.87;;;;;4.70;97023.00;;;;8337215;28;20337;-77
2022/03/09 08:52:16;;;;;;;15.20;7.43;;;;;5.00;97036.00;;;;8335375;28;20266;-80
2022/03/09 08:56:21;;;;;;;13.77;6.57;;;;;5.20;97027.00;;;;8340074;28;20261;-83
2022/03/09 09:00:28;;;;;;;15.83;7.63;;;;;5.50;97031.00;;;;8339307;28;20260;-79
2022/03/09 09:04:31;;;;;;;14.37;7.30;;;;;5.70;97031.00;;;;8339850;28;20230;-78
2022/03/09 09:08:35;;;;;;;13.40;7.50;;;;;5.90;97043.00;;;;8341708;28;20240;-84
2022/03/09 09:12:39;;;;;;;15.70;7.00;;;;;6.10;97034.00;;;;8344712;28;20794;-75
2022/03/09 09:16:43;;;;;;;15.70;7.03;;;;;6.30;97042.00;;;;8349181;28;20758;-85
2022/03/09 09:20:46;;;;;;;16.23;8.03;;;;;6.50;97041.00;;;;8346645;28;20310;-84
2022/03/09 09:24:50;;;;;;;16.23;7.57;;;;;6.70;97041.00;;;;8348412;28;20656;-86
2022/03/09 09:28:54;;;;;;;10.80;7.00;;;;;6.90;97044.00;;;;8350788;28;20235;-85
2022/03/09 09:32:57;;;;;;;16.27;7.70;;;;;7.10;97032.00;;;;8347627;28;20754;-86
2022/03/09 09:37:02;;;;;;;11.83;6.83;;;;;7.40;97042.00;;;;8338397;28;20229;-84
2022/03/09 09:41:08;;;;;;;15.03;7.67;;;;;7.80;97037.00;;;;8343250;28;20239;-78
2022/03/09 09:45:13;;;;;;;13.60;7.20;;;;;8.30;97034.00;;;;8351977;28;20238;-80
2022/03/09 09:49:16;;;;;;;13.03;7.40;;;;;8.80;97046.00;;;;8351952;28;20240;-81
2022/03/09 09:53:19;;;;;;;15.30;6.97;;;;;9.00;97036.00;;;;8346130;28;20236;-84
2022/03/09 09:57:23;;;;;;;13.10;7.03;;;;;9.20;97036.00;;;;8340547;28;20241;-84
2022/03/09 10:01:29;;;;;;;16.80;7.53;;;;;9.50;97034.00;;;;8349362;28;20252;-81
2022/03/09 10:05:33;;;;;;;12.67;7.07;;;;;9.60;97036.00;;;;8335802;28;20336;-81
2022/03/09 10:09:36;;;;;;;14.70;7.10;;;;;9.70;97023.00;;;;8342126;28;20310;-83
2022/03/09 10:13:39;;;;;;;12.87;6.97;;;;;10.10;97030.00;;;;8336467;28;20224;-80
2022/03/09 10:17:43;;;;;;;15.20;7.40;;;;;10.70;97036.00;;;;8344931;28;20275;-79
2022/03/09 10:21:47;;;;;;;13.87;7.27;;;;;11.30;97041.00;;;;8341458;28;20239;-77
2022/03/09 10:26:01;;;;;;;17.70;7.70;;;;;11.70;97052.00;;;;8340995;28;20751;-76
2022/03/09 10:30:09;;;;;;;13.17;6.90;;;;;12.20;97046.00;;;;8340214;28;20286;-76
2022/03/09 10:34:16;;;;;;;13.23;6.57;;;;;12.60;97042.00;;;;8340648;28;20235;-77
2022/03/09 10:38:30;;;;;;;13.73;6.90;;;;;12.80;97045.00;;;;8342877;28;20237;-75
2022/03/09 10:42:35;;;;;;;10.43;6.30;;;;;13.00;97045.00;;;;8337911;28;20244;-77
2022/03/09 10:46:43;;;;;;;13.00;7.33;;;;;12.80;97041.00;;;;8338544;28;20227;-78
2022/03/09 10:50:53;;;;;;;15.52;7.70;;;;;12.70;97040.00;;;;8343128;28;20682;-77
2022/03/09 10:55:20;;;;;;;13.75;6.82;;;;;12.30;97034.00;;;;8329375;28;20229;-77
2022/03/09 10:59:24;;;;;;;11.83;7.00;;;;;11.80;97041.00;;;;8336490;28;20278;-77
2022/03/09 11:03:34;;;;;;;11.30;6.82;;;;;11.60;97030.00;;;;8334197;28;20248;-77
2022/03/09 11:07:39;;;;;;;16.93;8.00;;;;;11.40;97021.00;;;;8334402;28;20244;-77
2022/03/09 11:11:45;;;;;;;10.47;6.43;;;;;11.50;97028.00;;;;8336296;28;20300;-78
2022/03/09 11:15:50;;;;;;;15.13;7.80;;;;;11.30;97022.00;;;;8319737;28;20217;-74
2022/03/09 11:19:54;;;;;;;12.10;7.27;;;;;11.30;97011.00;;;;8345250;28;20920;-76
2022/03/09 11:24:00;;;;;;;13.47;7.67;;;;;11.20;97006.00;;;;8338881;28;20222;-77
2022/03/09 11:28:04;;;;;;;12.47;6.80;;;;;11.00;97011.00;;;;8342081;28;20232;-75
2022/03/09 11:32:10;;;;;;;13.10;6.87;;;;;11.20;97008.00;;;;8325624;28;20220;-76
2022/03/09 11:36:33;;;;;;;12.75;6.65;;;;;11.20;96999.00;;;;8336775;28;20898;-76
2022/03/09 11:40:37;;;;;;;15.07;7.23;;;;;11.30;96992.00;;;;8335381;28;20228;-76
2022/03/09 11:44:40;;;;;;;13.83;6.80;;;;;11.50;96992.00;;;;8333007;28;20302;-76
2022/03/09 11:48:51;;;;;;;15.50;7.10;;;;;11.70;96996.00;;;;8337036;28;20233;-77
2022/03/09 11:52:57;;;;;;;10.93;6.17;;;;;11.80;96988.00;;;;8334096;28;20274;-75
2022/03/09 11:57:02;;;;;;;11.65;6.88;;;;;11.90;96990.00;;;;8346323;28;20632;-74
2022/03/09 12:01:05;;;;;;;12.57;6.82;;;;;11.90;96982.00;;;;8339339;28;20228;-75
2022/03/09 12:05:29;;;;;;;10.63;6.15;;;;;11.50;96984.00;;;;8340440;28;20225;-76
2022/03/09 12:09:55;;;;;;;10.98;6.10;;;;;11.20;96978.00;;;;8336144;28;20278;-75
2022/03/09 12:13:59;;;;;;;9.17;5.37;;;;;11.20;96969.00;;;;8327005;28;20894;-75
2022/03/09 12:18:37;;;;;;;10.10;5.55;;;;;11.20;96966.00;;;;8342817;28;20290;-75
2022/03/09 12:23:05;;;;;;;10.77;5.97;;;;;11.20;96965.00;;;;8321266;28;20279;-71
2022/03/09 12:27:26;;;;;;;8.13;5.47;;;;;11.10;96959.00;;;;8343472;28;20266;-72
2022/03/09 12:31:30;;;;;;;11.73;6.67;;;;;10.90;96960.00;;;;8344525;28;20247;-72
2022/03/09 12:35:34;;;;;;;7.35;5.07;;;;;10.90;96961.00;;;;8344359;28;20224;-72
2022/03/09 12:39:38;;;;;;;7.87;5.07;;;;;10.80;96956.00;;;;8347046;28;20274;-72
2022/03/09 12:43:47;;;;;;;10.57;5.72;;;;;10.80;96955.00;;;;8348017;28;20236;-72
2022/03/09 12:47:54;;;;;;;7.77;5.20;;;;;10.90;96954.00;;;;8338121;28;20228;-70
2022/03/09 12:52:00;;;;;;;8.55;4.40;;;;;11.00;96955.00;;;;8342521;28;20232;-72
2022/03/09 12:56:25;;;;;;;6.88;4.63;;;;;11.10;96951.00;;;;8341239;28;20308;-70
2022/03/09 13:00:37;;;;;;;10.40;4.47;;;;;11.40;96958.00;;;;8343819;28;20233;-70
2022/03/09 13:04:40;;;;;;;10.27;4.90;;;;;11.40;96952.00;;;;8341619;28;20224;-71
2022/03/09 13:08:44;;;;;;;6.88;4.65;;;;;11.30;96943.00;;;;8341215;28;20655;-70
2022/03/09 13:12:50;;;;;;;8.38;5.28;;;;;11.10;96947.00;;;;8349806;28;20264;-70
2022/03/09 13:17:01;;;;;;;9.40;4.88;;;;;11.10;96943.00;;;;8351388;28;20236;-71
2022/03/09 13:21:04;;;;;;;6.28;3.85;;;;;11.00;96945.00;;;;8346660;28;20229;-72
2022/03/09 13:25:14;;;;;;;7.63;4.57;;;;;10.90;96943.00;;;;8337051;28;20237;-72
2022/03/09 13:29:20;;;;;;;7.40;4.65;;;;;10.90;96935.00;;;;8346280;28;20224;-72
2022/03/09 13:33:23;;;;;;;5.07;3.97;;;;;10.90;96928.00;;;;8338497;28;20247;-73
2022/03/09 13:37:35;;;;;;;7.60;4.03;;;;;10.90;96928.00;;;;8340161;28;20221;-73
2022/03/09 13:41:41;;;;;;;8.98;6.25;;;;;11.00;96925.00;;;;8338858;28;20580;-72
2022/03/09 13:45:44;;;;;;;5.82;4.05;;;;;11.20;96932.00;;;;8335972;28;20666;-71
2022/03/09 13:49:49;;;;;;;10.80;4.32;;;;;11.20;96927.00;;;;8330403;28;20323;-72
2022/03/09 13:54:02;;;;;;;5.60;3.67;;;;;11.10;96929.00;;;;8326015;28;20213;-72
2022/03/09 13:58:09;;;;;;;5.43;3.60;;;;;11.10;96926.00;;;;8351691;28;20235;-72
2022/03/09 14:02:22;;;;;;;8.20;4.05;;;;;11.00;96927.00;;;;8333077;28;20237;-72
2022/03/09 14:06:28;;;;;;;5.68;3.35;;;;;11.10;96927.00;;;;8339511;28;20233;-72
2022/03/09 14:10:33;;;;;;;7.20;3.70;;;;;11.20;96921.00;;;;8330254;28;20241;-72
2022/03/09 14:14:40;;;;;;;5.25;3.00;;;;;11.30;96927.00;;;;8334982;28;20265;-72
2022/03/09 14:18:43;;;;;;;5.60;3.72;;;;;11.50;96926.00;;;;8327870;28;20236;-72
2022/03/09 14:22:48;;;;;;;4.23;2.87;;;;;11.70;96927.00;;;;8332925;28;20236;-73
2022/03/09 14:26:52;;;;;;;4.53;3.47;;;;;12.00;96925.00;;;;8333041;28;20254;-72
2022/03/09 14:30:57;;;;;;;3.55;3.08;;;;;12.20;96926.00;;;;8338412;28;20246;-72
2022/03/09 14:35:00;;;;;;;3.97;2.90;;;;;12.40;96925.00;;;;8332467;28;20236;-72
2022/03/09 14:39:04;;;;;;;4.70;3.50;;;;;12.70;96924.00;;;;8341423;28;20253;-72
2022/03/09 14:43:07;;;;;;;5.32;3.28;;;;;12.90;96919.00;;;;8349603;28;20579;-73
2022/03/09 14:47:11;;;;;;;6.55;3.63;;;;;13.20;96921.00;;;;8340679;28;20296;-72
2022/03/09 14:51:15;;;;;;;3.88;3.22;;;;;13.40;96926.00;;;;8328857;28;20239;-72
2022/03/09 14:55:18;;;;;;;5.40;3.20;;;;;13.50;96919.00;;;;8330728;28;20220;-72
2022/03/09 14:59:22;;;;;;;3.08;2.78;;;;;13.50;96917.00;;;;8335545;28;20234;-72
2022/03/09 15:03:29;;;;;;;4.20;2.90;;;;;13.40;96921.00;;;;8323654;28;20231;-71
2022/03/09 15:07:33;;;;;;;2.88;2.58;;;;;13.50;96927.00;;;;8319335;28;20232;-71
2022/03/09 15:11:36;;;;;;;3.97;2.55;;;;;13.40;96913.00;;;;8329100;28;20891;-72
2022/03/09 15:15:39;;;;;;;2.60;2.35;;;;;13.50;96921.00;;;;8344042;28;20231;-71
2022/03/09 15:19:43;;;;;;;5.47;2.90;;;;;13.50;96919.00;;;;8339744;28;20235;-72
2022/03/09 15:23:46;;;;;;;3.30;2.67;;;;;13.60;96923.00;;;;8340119;28;20244;-72
2022/03/09 15:27:49;;;;;;;2.97;2.65;;;;;13.50;96921.00;;;;8341804;28;20234;-72
2022/03/09 15:31:54;;;;;;;3.90;2.95;;;;;13.40;96917.00;;;;8328758;28;20236;-72
2022/03/09 15:35:58;;;;;;;4.05;2.80;;;;;13.30;96916.00;;;;8338581;28;20253;-71
2022/03/09 15:40:03;;;;;;;3.72;3.20;;;;;13.20;96915.00;;;;8326671;28;20227;-71
2022/03/09 15:44:06;;;;;;;5.45;3.67;;;;;13.00;96907.00;;;;8333320;28;20232;-71
2022/03/09 15:48:10;;;;;;;3.70;2.83;;;;;13.00;96908.00;;;;8321771;28;20257;-72
2022/03/09 15:52:15;;;;;;;7.60;2.80;;;;;13.00;96907.00;;;;8334704;28;20232;-72
2022/03/09 15:56:18;;;;;;;3.10;2.80;;;;;12.90;96916.00;;;;8332274;28;20495;-73
2022/03/09 16:00:21;;;;;;;4.10;2.63;;;;;12.90;96902.00;;;;8344553;28;20265;-71
2022/03/09 16:04:24;;;;;;;4.38;2.72;;;;;12.80;96902.00;;;;8330413;28;20238;-74
2022/03/09 16:08:28;;;;;;;4.47;2.90;;;;;12.60;96905.00;;;;8338636;28;20279;-71
2022/03/09 16:12:31;;;;;;;2.67;2.47;;;;;12.30;96904.00;;;;8342058;28;20697;-73
2022/03/09 16:16:35;;;;;;;3.25;2.63;;;;;12.20;96903.00;;;;8340833;28;20653;-74
2022/03/09 16:20:41;;;;;;;2.90;2.70;;;;;11.90;96892.00;;;;8343554;28;20222;-71
2022/03/09 16:24:49;;;;;;;4.88;3.40;;;;;11.70;96896.00;;;;8346638;28;20222;-73
2022/03/09 16:28:52;;;;;;;4.63;3.60;;;;;11.50;96901.00;;;;8343799;28;20950;-72
2022/03/09 16:32:55;;;;;;;8.00;3.90;;;;;11.30;96898.00;;;;8351627;28;20225;-72
2022/03/09 16:36:58;;;;;;;3.30;3.00;;;;;11.10;96902.00;;;;8354107;28;20325;-70
2022/03/09 16:41:04;;;;;;;7.70;4.22;;;;;10.80;96907.00;;;;8337164;28;20231;-73
2022/03/09 16:45:09;;;;;;;7.20;4.33;;;;;10.50;96908.00;;;;8341600;28;20232;-72
2022/03/09 16:49:12;;;;;;;9.20;4.20;;;;;10.10;96909.00;;;;8350942;28;20229;-73
2022/03/09 16:53:15;;;;;;;6.57;4.00;;;;;9.60;96915.00;;;;8351141;28;20228;-73
2022/03/09 16:57:20;;;;;;;7.13;3.95;;;;;9.10;96922.00;;;;8343725;28;20919;-73
2022/03/09 17:01:23;;;;;;;7.18;4.38;;;;;8.50;96924.00;;;;8337926;28;20232;-73
2022/03/09 17:05:57;;;;;;;8.60;4.50;;;;;7.90;96922.00;;;;8364524;28;20672;-73
2022/03/09 17:10:32;;;;;;;18.83;4.37;;;;;7.30;96923.00;;;;8364463;28;20690;-73
2022/03/09 17:14:36;;;;;;;24.80;4.70;;;;;6.90;96926.00;;;;8363501;28;20286;-73
2022/03/09 17:19:11;;;;;;;26.23;4.97;;;;;6.40;96937.00;;;;8363865;28;20273;-73
2022/03/09 17:23:45;;;;;;;17.87;5.07;;;;;6.10;96931.00;;;;8362942;28;20228;-73
2022/03/09 17:27:47;;;;;;;14.57;4.43;;;;;5.80;96943.00;;;;8363723;28;20228;-73
2022/03/09 17:31:52;;;;;;;10.77;4.77;;;;;5.50;96939.00;;;;8363619;28;20240;-73
2022/03/09 17:36:27;;;;;;;12.27;4.40;;;;;5.30;96952.00;;;;8363075;28;20224;-73
2022/03/09 17:40:31;;;;;;;13.67;4.97;;;;;5.00;96949.00;;;;8363904;28;20304;-72
2022/03/09 17:45:06;;;;;;;17.80;6.77;;;;;4.70;96957.00;;;;8363416;28;20255;-73
2022/03/09 17:49:44;;;;;;;16.10;6.63;;;;;4.50;96951.00;;;;8363070;28;20232;-72
2022/03/09 17:53:47;;;;;;;14.30;5.83;;;;;4.30;96961.00;;;;8362517;28;20242;-72
2022/03/09 17:57:51;;;;;;;8.87;5.07;;;;;4.20;96960.00;;;;8362479;28;20228;-73
2022/03/09 18:01:54;;;;;;;11.87;5.00;;;;;4.10;96957.00;;;;8358581;28;20301;-73
2022/03/09 18:05:59;;;;;;;9.73;4.90;;;;;4.00;96959.00;;;;8343933;28;20235;-73
2022/03/09 18:10:02;;;;;;;8.27;4.10;;;;;3.80;96957.00;;;;8343673;28;20736;-75
2022/03/09 18:14:05;;;;;;;10.17;5.10;;;;;3.60;96952.00;;;;8343997;28;20770;-74
2022/03/09 18:18:08;;;;;;;12.43;5.33;;;;;3.40;96955.00;;;;8345930;28;20236;-73
2022/03/09 18:22:13;;;;;;;10.27;5.27;;;;;3.30;96963.00;;;;8341336;28;20235;-73
2022/03/09 18:26:16;;;;;;;12.77;5.00;;;;;3.10;96954.00;;;;8343589;28;20788;-74
2022/03/09 18:30:19;;;;;;;26.97;5.53;;;;;3.00;96958.00;;;;8346083;28;20605;-72
2022/03/09 18:34:22;;;;;;;11.37;5.73;;;;;3.00;96961.00;;;;8344479;28;20661;-72
2022/03/09 18:38:26;;;;;;;8.77;5.23;;;;;2.90;96959.00;;;;8338265;28;20958;-72
2022/03/09 18:42:29;;;;;;;7.43;4.90;;;;;2.80;96964.00;;;;8343130;28;20264;-73
2022/03/09 18:46:35;;;;;;;12.83;5.73;;;;;2.70;96970.00;;;;8345849;28;20228;-72
2022/03/09 18:50:38;;;;;;;9.50;5.13;;;;;2.70;96975.00;;;;8342474;28;20238;-73
2022/03/09 18:54:42;;;;;;;12.07;5.93;;;;;2.60;96976.00;;;;8335156;28;20229;-72
2022/03/09 18:58:45;;;;;;;16.70;7.20;;;;;2.40;96977.00;;;;8334980;28;20233;-72
2022/03/09 19:02:48;;;;;;;17.10;7.03;;;;;2.30;96983.00;;;;8339388;28;20233;-72
2022/03/09 19:06:52;;;;;;;13.03;5.37;;;;;2.10;96990.00;;;;8340801;28;20229;-72
2022/03/09 19:10:56;;;;;;;18.00;7.53;;;;;2.00;96989.00;;;;8331252;28;20276;-71
2022/03/09 19:14:59;;;;;;;13.43;6.63;;;;;1.90;96981.00;;;;8330208;28;20225;-72
2022/03/09 19:19:02;;;;;;;12.30;6.60;;;;;1.80;96990.00;;;;8338570;28;20221;-72
2022/03/09 19:23:05;;;;;;;15.83;7.27;;;;;1.60;96989.00;;;;8342913;28;20280;-72
2022/03/09 19:27:09;;;;;;;13.03;6.77;;;;;1.60;96997.00;;;;8343311;28;20231;-73
2022/03/09 19:31:13;;;;;;;16.53;8.00;;;;;1.50;96996.00;;;;8343355;28;20242;-73
2022/03/09 19:35:17;;;;;;;16.70;6.80;;;;;1.50;97009.00;;;;8341386;28;20225;-73
2022/03/09 19:39:20;;;;;;;18.13;7.60;;;;;1.30;97011.00;;;;8340474;28;20295;-73
2022/03/09 19:43:24;;;;;;;17.70;7.37;;;;;1.20;97006.00;;;;8343661;28;20282;-74
2022/03/09 19:47:29;;;;;;;16.80;8.10;;;;;1.20;97013.00;;;;8343522;28;20640;-72
2022/03/09 19:51:32;;;;;;;18.70;7.97;;;;;1.10;97009.00;;;;8334024;28;20613;-69
2022/03/09 19:55:35;;;;;;;18.93;7.37;;;;;1.20;97007.00;;;;8331665;28;20233;-73
2022/03/09 19:59:39;;;;;;;16.20;7.67;;;;;1.10;97012.00;;;;8338818;28;20747;-73
2022/03/09 20:03:42;;;;;;;18.03;7.50;;;;;0.90;97021.00;;;;8347776;28;20233;-72
2022/03/09 20:07:45;;;;;;;20.13;8.03;;;;;0.80;97019.00;;;;8340207;28;20589;-74
2022/03/09 20:11:48;;;;;;;20.60;8.20;;;;;0.70;97013.00;;;;8329474;28;20233;-74
2022/03/09 20:15:53;;;;;;;24.37;8.63;;;;;0.60;97018.00;;;;8337429;28;20290;-72
2022/03/09 20:19:56;;;;;;;23.10;9.13;;;;;0.50;97022.00;;;;8341396;28;20220;-71
2022/03/09 20:23:59;;;;;;;19.90;9.00;;;;;0.50;97032.00;;;;8341746;28;20594;-71
2022/03/09 20:28:02;;;;;;;21.87;9.53;;;;;0.40;97032.00;;;;8338476;28;20240;-71